Time;durP1;ratioP1;P1;durP2;ratioP2;P2;SDS_P1;SDS_P2;PMS_P1;PMS_P2;Temp;Humidity;BMP_temperature;BMP_pressure;BME280_temperature;BME280_humidity;BME280_pressure;Samples;Min_cycle;Max_cycle;Signal;HPM_P1;HPM_P2
2022/06/14 00:00:56;;;;;;;;;;;;;;;28.44;38.32;94673.41;4950571;29;9060;-58
2022/06/14 00:03:38;;;;;;;;;;;;;;;28.43;38.20;94676.72;4942452;29;9042;-57
2022/06/14 00:06:14;;;;;;;;;;;;;;;28.43;38.39;94677.44;4917252;29;7217;-58
2022/06/14 00:08:40;;;;;;;;;;;;;;;28.41;38.01;94679.97;4927261;29;9763;-58
2022/06/14 00:11:31;;;;;;;;;;;;;;;28.42;38.40;94669.66;4948310;28;8241;-58
2022/06/14 00:14:00;;;;;;;;;;;;;;;28.41;38.39;94668.91;4931754;28;9121;-58
2022/06/14 00:16:41;;;;;;;;;;;;;;;28.43;38.47;94668.41;4952959;28;8652;-58
2022/06/14 00:19:22;;;;;;;;;;;;;;;28.42;37.96;94659.34;4953841;28;9062;-58
2022/06/14 00:22:01;;;;;;;;;;;;;;;28.42;38.53;94670.44;4937582;28;9543;-57
2022/06/14 00:24:29;;;;;;;;;;;;;;;28.43;38.25;94666.38;4933037;28;7368;-58
2022/06/14 00:27:09;;;;;;;;;;;;;;;28.41;38.42;94668.91;4969653;28;7737;-58
2022/06/14 00:29:48;;;;;;;;;;;;;;;28.42;38.10;94659.34;4994230;28;9044;-58
2022/06/14 00:32:15;;;;;;;;;;;;;;;28.38;38.33;94659.63;4991683;28;8882;-58
2022/06/14 00:34:41;;;;;;;;;;;;;;;28.40;38.08;94656.38;4981479;28;7211;-57
2022/06/14 00:37:15;;;;;;;;;;;;;;;28.40;38.09;94653.59;5041265;28;7430;-58
2022/06/14 00:39:46;;;;;;;;;;;;;;;28.41;38.37;94657.09;5048532;28;9200;-58
2022/06/14 00:42:21;;;;;;;;;;;;;;;28.40;38.10;94667.44;5061398;28;6987;-58
2022/06/14 00:45:06;;;;;;;;;;;;;;;28.40;38.41;94661.91;5074523;28;7584;-58
2022/06/14 00:48:17;;;;;;;;;;;;;;;28.40;38.33;94672.22;5040188;28;7052;-57
2022/06/14 00:51:05;;;;;;;;;;;;;;;28.38;38.29;94661.69;4974693;28;9057;-58
2022/06/14 00:53:56;;;;;;;;;;;;;;;28.35;38.30;94666.22;4963091;28;7437;-58
2022/06/14 00:56:42;;;;;;;;;;;;;;;28.34;38.21;94659.19;4975940;28;8874;-58
2022/06/14 00:59:45;;;;;;;;;;;;;;;28.33;38.74;94662.50;4962743;28;9088;-58
2022/06/14 01:02:14;;;;;;;;;;;;;;;28.32;38.55;94663.75;4936883;28;9308;-57
2022/06/14 01:04:41;;;;;;;;;;;;;;;28.29;38.59;94657.25;4948201;28;9106;-57
2022/06/14 01:07:20;;;;;;;;;;;;;;;28.30;38.50;94658.00;4952195;28;7264;-57
2022/06/14 01:10:03;;;;;;;;;;;;;;;28.32;38.99;94655.44;4937054;28;9363;-57
2022/06/14 01:12:51;;;;;;;;;;;;;;;28.34;38.14;94655.66;4937530;28;7242;-57
2022/06/14 01:15:28;;;;;;;;;;;;;;;28.35;38.27;94665.47;4952677;28;7207;-57
2022/06/14 01:18:04;;;;;;;;;;;;;;;28.35;38.50;94660.69;4948647;28;7881;-57
2022/06/14 01:20:31;;;;;;;;;;;;;;;28.36;38.51;94655.91;4929780;28;7232;-57
2022/06/14 01:23:00;;;;;;;;;;;;;;;28.38;38.54;94663.69;4933442;28;7442;-57
2022/06/14 01:25:31;;;;;;;;;;;;;;;28.36;38.49;94662.19;4995503;28;7612;-57
2022/06/14 01:28:03;;;;;;;;;;;;;;;28.36;38.57;94661.44;5022878;28;9459;-57
2022/06/14 01:30:49;;;;;;;;;;;;;;;28.36;38.38;94655.91;5007861;28;8811;-57
2022/06/14 01:33:42;;;;;;;;;;;;;;;28.38;38.47;94660.94;5051305;28;7268;-57
2022/06/14 01:36:33;;;;;;;;;;;;;;;28.37;38.38;94651.88;5005418;28;9027;-57
2022/06/14 01:39:18;;;;;;;;;;;;;;;28.34;38.41;94648.13;5020213;28;9286;-57
2022/06/14 01:42:02;;;;;;;;;;;;;;;28.35;38.57;94649.63;5053028;28;7376;-57
2022/06/14 01:44:51;;;;;;;;;;;;;;;28.35;38.62;94648.88;5041943;28;9067;-57
2022/06/14 01:47:40;;;;;;;;;;;;;;;28.34;38.43;94644.59;5063335;28;7385;-57
2022/06/14 01:53:41;;;;;;;;;;;;;;;28.33;38.77;94646.66;5053327;28;7021;-57
2022/06/14 01:56:16;;;;;;;;;;;;;;;28.32;37.92;94644.38;5054671;28;9039;-57
2022/06/14 01:58:56;;;;;;;;;;;;;;;28.32;38.52;94645.13;5047848;28;8044;-57
2022/06/14 02:01:49;;;;;;;;;;;;;;;28.33;38.57;94643.13;5049559;28;7271;-57
2022/06/14 02:04:39;;;;;;;;;;;;;;;28.32;38.49;94644.38;5058184;28;9027;-57
2022/06/14 02:07:26;;;;;;;;;;;;;;;28.32;38.46;94639.59;5056016;28;9086;-57
2022/06/14 02:10:34;;;;;;;;;;;;;;;28.32;38.51;94636.09;5055394;28;8828;-57
2022/06/14 02:13:39;;;;;;;;;;;;;;;28.32;38.61;94641.63;5059481;28;7060;-57
2022/06/14 02:16:28;;;;;;;;;;;;;;;28.32;38.85;94641.63;5057652;28;9069;-57
2022/06/14 02:19:42;;;;;;;;;;;;;;;28.31;38.59;94640.13;5043613;28;7231;-57
2022/06/14 02:22:14;;;;;;;;;;;;;;;28.29;38.67;94632.38;5040541;28;7198;-57
2022/06/14 02:24:47;;;;;;;;;;;;;;;28.30;38.44;94630.31;5053125;28;6970;-57
2022/06/14 02:28:00;;;;;;;;;;;;;;;28.29;38.74;94626.06;5058129;28;7270;-57
2022/06/14 02:30:54;;;;;;;;;;;;;;;28.29;38.79;94626.06;5034034;28;9082;-57
2022/06/14 02:33:24;;;;;;;;;;;;;;;28.27;38.53;94625.84;5046462;28;9359;-57
2022/06/14 02:36:00;;;;;;;;;;;;;;;28.26;38.79;94624.34;5056175;28;9058;-57
2022/06/14 02:38:35;;;;;;;;;;;;;;;28.25;38.85;94628.41;5053251;28;9105;-57
2022/06/14 02:41:09;;;;;;;;;;;;;;;28.25;38.12;94622.88;5045846;28;7291;-57
2022/06/14 02:43:48;;;;;;;;;;;;;;;28.26;38.70;94629.88;5033487;28;7242;-57
2022/06/14 02:46:19;;;;;;;;;;;;;;;28.25;38.46;94634.66;5037770;28;7214;-57
2022/06/14 02:48:55;;;;;;;;;;;;;;;28.24;38.75;94630.41;5021266;28;6994;-57
2022/06/14 02:51:33;;;;;;;;;;;;;;;28.25;38.89;94629.13;5030636;28;7237;-57
2022/06/14 02:54:13;;;;;;;;;;;;;;;28.23;38.46;94622.66;5037712;28;8200;-57
2022/06/14 02:57:10;;;;;;;;;;;;;;;28.23;38.74;94622.66;5042611;28;7218;-57
2022/06/14 02:59:48;;;;;;;;;;;;;;;28.22;38.87;94623.91;5030747;28;9102;-57
2022/06/14 03:02:28;;;;;;;;;;;;;;;28.22;38.66;94629.44;5052973;28;7380;-57
2022/06/14 03:05:29;;;;;;;;;;;;;;;28.21;38.76;94622.41;5042584;28;9341;-57
2022/06/14 03:08:09;;;;;;;;;;;;;;;28.18;38.77;94623.47;5042439;28;8821;-57
2022/06/14 03:11:03;;;;;;;;;;;;;;;28.12;39.11;94617.97;5042074;28;7254;-57
2022/06/14 03:13:29;;;;;;;;;;;;;;;28.10;39.29;94623.28;5050597;28;9493;-57
2022/06/14 03:16:21;;;;;;;;;;;;;;;28.10;39.00;94619.78;5059639;28;7215;-57
2022/06/14 03:19:25;;;;;;;;;;;;;;;28.07;38.91;94618.06;5068533;28;7054;-57
2022/06/14 03:22:00;;;;;;;;;;;;;;;28.06;39.00;94611.03;4947285;28;7081;-57
2022/06/14 03:24:59;;;;;;;;;;;;;;;28.05;38.78;94621.34;4947801;28;7838;-57
2022/06/14 03:27:30;;;;;;;;;;;;;;;28.06;39.38;94622.09;4963491;28;6996;-57
2022/06/14 03:30:20;;;;;;;;;;;;;;;28.04;38.90;94624.63;4947969;28;7272;-57
2022/06/14 03:33:04;;;;;;;;;;;;;;;28.05;39.16;94620.59;4947279;28;6989;-57
2022/06/14 03:35:38;;;;;;;;;;;;;;;28.04;39.03;94624.63;4958145;28;7101;-57
2022/06/14 03:38:13;;;;;;;;;;;;;;;28.04;38.98;94624.63;4967016;28;9483;-57
2022/06/14 03:40:42;;;;;;;;;;;;;;;28.02;39.07;94627.16;4944144;29;8882;-57
2022/06/14 03:43:11;;;;;;;;;;;;;;;28.00;39.23;94624.19;4933929;29;9140;-57
2022/06/14 03:45:59;;;;;;;;;;;;;;;28.01;38.87;94631.22;4940446;28;9465;-57
2022/06/14 03:48:32;;;;;;;;;;;;;;;28.00;38.96;94624.94;4953535;28;7000;-57
2022/06/14 03:51:23;;;;;;;;;;;;;;;28.00;39.14;94629.72;4951233;28;7168;-57
2022/06/14 03:54:36;;;;;;;;;;;;;;;27.99;39.11;94631.72;4954748;28;7076;-57
2022/06/14 03:57:29;;;;;;;;;;;;;;;27.98;39.37;94624.72;4891307;29;7002;-57
2022/06/14 04:00:16;;;;;;;;;;;;;;;27.98;39.21;94626.72;4974845;28;9213;-57
2022/06/14 04:02:53;;;;;;;;;;;;;;;27.97;38.87;94625.97;4970680;28;8380;-57
2022/06/14 04:05:42;;;;;;;;;;;;;;;27.97;39.01;94627.97;4957269;28;9028;-57
2022/06/14 04:08:28;;;;;;;;;;;;;;;27.96;39.13;94620.94;4973034;28;8460;-57
2022/06/14 04:11:17;;;;;;;;;;;;;;;27.96;39.20;94624.44;4957137;28;7132;-57
2022/06/14 04:13:57;;;;;;;;;;;;;;;27.95;38.94;94627.75;4954589;28;7226;-57
2022/06/14 04:16:43;;;;;;;;;;;;;;;27.95;39.16;94622.22;4951859;28;9178;-57
2022/06/14 04:19:25;;;;;;;;;;;;;;;27.94;39.04;94620.72;4950672;28;8778;-57
2022/06/14 04:22:11;;;;;;;;;;;;;;;27.93;38.69;94619.19;4946180;28;7233;-57
2022/06/14 04:24:56;;;;;;;;;;;;;;;27.94;38.96;94620.72;4932781;28;6993;-57
2022/06/14 04:27:41;;;;;;;;;;;;;;;27.94;39.45;94620.72;4946627;28;7281;-57
2022/06/14 04:30:14;;;;;;;;;;;;;;;27.93;38.96;94619.19;4946077;28;7237;-57
2022/06/14 04:32:53;;;;;;;;;;;;;;;27.95;38.80;94619.44;4932532;28;7146;-57
2022/06/14 04:35:48;;;;;;;;;;;;;;;27.95;39.17;94613.91;5017901;28;7135;-57
2022/06/14 04:38:23;;;;;;;;;;;;;;;27.95;39.14;94608.41;5023504;28;7274;-57
2022/06/14 04:41:12;;;;;;;;;;;;;;;27.93;40.08;94608.13;5020938;28;7265;-57
2022/06/14 04:43:43;;;;;;;;;;;;;;;27.92;39.58;94609.44;5027985;28;7173;-57
2022/06/14 04:46:42;;;;;;;;;;;;;;;27.92;40.00;94614.97;5026657;28;7256;-57
2022/06/14 04:49:49;;;;;;;;;;;;;;;27.91;39.94;94610.69;4973961;28;8837;-57
2022/06/14 04:52:26;;;;;;;;;;;;;;;27.89;39.68;94602.91;4952643;28;7164;-57
2022/06/14 04:55:13;;;;;;;;;;;;;;;27.90;39.73;94598.91;4950870;28;9148;-56
2022/06/14 04:57:58;;;;;;;;;;;;;;;27.86;39.65;94603.94;4946839;28;9055;-57
2022/06/14 05:00:41;;;;;;;;;;;;;;;27.84;39.45;94603.72;4952801;28;9512;-57
2022/06/14 05:03:23;;;;;;;;;;;;;;;27.83;39.46;94602.25;4953778;28;9290;-57
2022/06/14 05:06:11;;;;;;;;;;;;;;;27.84;39.01;94603.72;4934948;28;8640;-57
2022/06/14 05:08:58;;;;;;;;;;;;;;;27.84;39.03;94603.72;4950334;28;7246;-57
2022/06/14 05:11:39;;;;;;;;;;;;;;;27.83;39.32;94609.78;4946480;28;7470;-57
2022/06/14 05:14:34;;;;;;;;;;;;;;;27.84;39.21;94605.75;4933598;28;7354;-57
2022/06/14 05:17:20;;;;;;;;;;;;;;;27.86;38.77;94606.72;4929743;28;6950;-57
2022/06/14 05:19:58;;;;;;;;;;;;;;;27.81;39.05;94602.00;4933399;28;7426;-57
2022/06/14 05:23:27;;;;;;;;;;;;;;;27.82;38.75;94608.31;4937138;28;9089;-57
2022/06/14 05:26:29;;;;;;;;;;;;;;;27.83;38.59;94607.00;4871600;29;9052;-57
2022/06/14 05:29:15;;;;;;;;;;;;;;;27.83;39.40;94607.00;4907367;29;9084;-57
2022/06/14 05:32:28;;;;;;;;;;;;;;;27.81;39.17;94610.31;4900289;29;7205;-57
2022/06/14 05:35:21;;;;;;;;;;;;;;;27.81;38.48;94610.31;4840498;29;7411;-57
2022/06/14 05:38:20;;;;;;;;;;;;;;;27.81;39.05;94610.31;4838585;29;7249;-57
2022/06/14 05:41:14;;;;;;;;;;;;;;;27.79;39.91;94609.31;4839737;29;7203;-57
2022/06/14 05:44:29;;;;;;;;;;;;;;;27.80;39.04;94602.50;4833751;29;9362;-57
2022/06/14 05:47:10;;;;;;;;;;;;;;;27.79;38.79;94604.56;4873084;29;7010;-57
2022/06/14 05:50:02;;;;;;;;;;;;;;;27.81;38.97;94604.03;4875483;29;9036;-57
2022/06/14 05:53:03;;;;;;;;;;;;;;;27.78;38.73;94611.34;4870087;29;7062;-57
2022/06/14 05:56:17;;;;;;;;;;;;;;;27.78;38.80;94608.56;4874753;29;7210;-57
2022/06/14 05:59:32;;;;;;;;;;;;;;;27.77;38.83;94606.34;4876015;29;7137;-57
2022/06/14 06:02:20;;;;;;;;;;;;;;;27.77;38.84;94611.88;4873874;29;7628;-57
2022/06/14 06:04:56;;;;;;;;;;;;;;;27.75;38.69;94614.41;4890577;29;7256;-57
2022/06/14 06:07:29;;;;;;;;;;;;;;;27.75;38.63;94601.34;4878806;29;7070;-57
2022/06/14 06:10:14;;;;;;;;;;;;;;;27.75;38.59;94608.88;4906555;29;7068;-57
2022/06/14 06:13:18;;;;;;;;;;;;;;;27.75;38.75;94604.09;4888176;29;7265;-57
2022/06/14 06:16:05;;;;;;;;;;;;;;;27.75;38.70;94608.88;4895935;29;9217;-57
2022/06/14 06:18:51;;;;;;;;;;;;;;;27.74;39.10;94610.13;4894367;29;9077;-58
2022/06/14 06:21:26;;;;;;;;;;;;;;;27.74;38.99;94605.34;4915305;29;7240;-57
2022/06/14 06:24:25;;;;;;;;;;;;;;;27.75;39.53;94595.81;4930912;29;7535;-57
2022/06/14 06:27:28;;;;;;;;;;;;;;;27.74;38.64;94607.38;4915263;29;7276;-57
2022/06/14 06:30:03;;;;;;;;;;;;;;;27.74;38.77;94613.66;4874396;29;9073;-57
2022/06/14 06:32:31;;;;;;;;;;;;;;;27.75;39.01;94609.63;4892805;29;9051;-57
2022/06/14 06:35:04;;;;;;;;;;;;;;;27.73;38.53;94609.38;4894108;29;9182;-57
2022/06/14 06:37:41;;;;;;;;;;;;;;;27.75;38.35;94620.69;4893262;29;6966;-57
2022/06/14 06:40:27;;;;;;;;;;;;;;;27.75;38.86;94614.41;4886185;29;9064;-57
2022/06/14 06:43:11;;;;;;;;;;;;;;;27.75;38.92;94611.63;4911555;29;7044;-57
2022/06/14 06:45:50;;;;;;;;;;;;;;;27.75;38.51;94615.16;4926828;29;7278;-57
2022/06/14 06:48:41;;;;;;;;;;;;;;;27.74;38.48;94607.38;4915387;29;8635;-57
2022/06/14 06:51:45;;;;;;;;;;;;;;;27.76;38.62;94610.34;4918953;28;7116;-57
2022/06/14 06:54:45;;;;;;;;;;;;;;;27.77;38.36;94614.63;4965227;28;9119;-57
2022/06/14 06:57:27;;;;;;;;;;;;;;;27.76;38.22;94613.88;4896668;29;7227;-57
2022/06/14 07:00:13;;;;;;;;;;;;;;;27.77;37.84;94612.63;4913574;29;9031;-57
2022/06/14 07:02:52;;;;;;;;;;;;;;;27.80;38.26;94619.09;4911587;29;7670;-57
2022/06/14 07:05:19;;;;;;;;;;;;;;;27.78;38.00;94614.09;4921693;28;7237;-58
2022/06/14 07:07:53;;;;;;;;;;;;;;;27.78;37.84;94607.81;4989846;28;7183;-58
2022/06/14 07:10:49;;;;;;;;;;;;;;;27.79;37.72;94620.38;4987998;28;7224;-58
2022/06/14 07:17:35;;;;;;;;;;;;;;;27.77;37.83;94612.63;4944945;29;9463;-58
2022/06/14 07:20:10;;;;;;;;;;;;;;;27.78;37.75;94616.88;4943206;29;7646;-58
2022/06/14 07:22:48;;;;;;;;;;;;;;;27.79;37.99;94609.31;4939342;28;7306;-58
2022/06/14 07:26:03;;;;;;;;;;;;;;;27.77;38.28;94612.63;4938228;28;8752;-58
2022/06/14 07:28:29;;;;;;;;;;;;;;;27.77;37.75;94604.31;4858642;29;9084;-58
2022/06/14 07:31:12;;;;;;;;;;;;;;;27.77;37.45;94606.34;4856993;29;7296;-58
2022/06/14 07:34:11;;;;;;;;;;;;;;;27.79;37.57;94603.81;4865500;29;8754;-58
2022/06/14 07:37:18;;;;;;;;;;;;;;;27.79;37.52;94603.81;4932981;29;9171;-58
2022/06/14 07:40:21;;;;;;;;;;;;;;;27.80;37.29;94606.03;4897194;29;7641;-58
2022/06/14 07:43:01;;;;;;;;;;;;;;;27.79;37.45;94601.03;4859024;29;7749;-58
2022/06/14 07:45:39;;;;;;;;;;;;;;;27.78;37.67;94605.06;4842684;29;7504;-57
2022/06/14 07:48:08;;;;;;;;;;;;;;;27.80;37.35;94605.28;4840743;29;7827;-57
2022/06/14 07:51:09;;;;;;;;;;;;;;;27.80;37.72;94608.03;4827613;29;7487;-57
2022/06/14 07:54:21;;;;;;;;;;;;;;;27.79;37.03;94609.31;4797460;29;8155;-57
2022/06/14 07:56:56;;;;;;;;;;;;;;;27.77;37.09;94598.03;4788493;29;7802;-57
2022/06/14 08:01:07;;;;;;;;;;;;;;;27.77;37.04;94609.09;4788169;29;8127;-57
2022/06/14 08:03:09;;;;;;;;;;;;;;;27.79;37.28;94609.31;4769156;30;8002;-57
2022/06/14 08:05:42;;;;;;;;;;;;;;;27.78;37.21;94610.59;4765424;30;8180;-57
2022/06/14 08:08:16;;;;;;;;;;;;;;;27.78;37.03;94599.53;4760764;30;7823;-57
2022/06/14 08:10:49;;;;;;;;;;;;;;;27.77;36.61;94600.81;4764279;30;8164;-57
2022/06/14 08:13:27;;;;;;;;;;;;;;;27.78;36.70;94600.28;4794765;29;8105;-57
2022/06/14 08:15:58;;;;;;;;;;;;;;;27.78;36.24;94605.06;4855136;29;7075;-57
2022/06/14 08:19:13;;;;;;;;;;;;;;;27.78;36.54;94603.03;4854375;29;9510;-57
2022/06/14 08:21:46;;;;;;;;;;;;;;;27.79;36.38;94603.81;4818167;29;7320;-57
2022/06/14 08:24:42;;;;;;;;;;;;;;;27.77;36.05;94595.28;4840096;29;7288;-57
2022/06/14 08:27:32;;;;;;;;;;;;;;;27.77;36.37;94598.03;4835577;29;8797;-57
2022/06/14 08:30:06;;;;;;;;;;;;;;;27.76;36.28;94597.28;4865620;29;9186;-57
2022/06/14 08:32:42;;;;;;;;;;;;;;;27.77;36.01;94590.50;4867789;29;7180;-57
2022/06/14 08:35:24;;;;;;;;;;;;;;;27.77;36.94;94589.75;4893463;29;9297;-57
2022/06/14 08:38:07;;;;;;;;;;;;;;;27.78;36.84;94592.00;4888307;29;7253;-57
2022/06/14 08:40:51;;;;;;;;;;;;;;;27.79;36.38;94590.75;4945222;28;7091;-57
2022/06/14 08:43:45;;;;;;;;;;;;;;;27.81;36.29;94592.97;4936877;28;9350;-57
2022/06/14 08:46:55;;;;;;;;;;;;;;;27.80;36.38;94594.97;4951122;28;8522;-57
2022/06/14 08:50:07;;;;;;;;;;;;;;;27.81;36.20;94595.72;4949448;28;9107;-57
2022/06/14 08:52:55;;;;;;;;;;;;;;;27.80;36.43;94592.22;4950929;28;7322;-57
2022/06/14 08:55:39;;;;;;;;;;;;;;;27.78;36.25;94586.47;4970827;28;9104;-57
2022/06/14 08:59:00;;;;;;;;;;;;;;;27.78;36.27;94592.00;5018700;28;9089;-57
2022/06/14 09:04:46;;;;;;;;;;;;;;;27.78;36.04;94586.47;4979379;28;9113;-57
2022/06/14 09:07:36;;;;;;;;;;;;;;;27.77;36.29;94593.28;4972434;28;7316;-57
2022/06/14 09:10:10;;;;;;;;;;;;;;;27.79;36.15;94589.97;4972042;28;8021;-57
2022/06/14 09:12:48;;;;;;;;;;;;;;;27.80;36.84;94591.47;4958930;28;7142;-57
2022/06/14 09:16:02;;;;;;;;;;;;;;;27.80;36.38;94594.97;4966110;28;7297;-58
2022/06/14 09:18:37;;;;;;;;;;;;;;;27.79;36.37;94587.97;4972966;28;9092;-58
2022/06/14 09:21:40;;;;;;;;;;;;;;;27.79;36.29;94590.75;4958089;28;8756;-58
2022/06/14 09:24:30;;;;;;;;;;;;;;;27.80;36.07;94591.47;4975974;28;7107;-58
2022/06/14 09:27:50;;;;;;;;;;;;;;;27.81;36.21;94587.44;4981225;28;7145;-58
2022/06/14 09:30:39;;;;;;;;;;;;;;;27.81;36.61;94595.72;4961605;28;8977;-58
2022/06/14 09:33:30;;;;;;;;;;;;;;;27.82;36.09;94592.44;4968177;28;7328;-58
2022/06/14 09:36:34;;;;;;;;;;;;;;;27.82;36.43;94597.25;5020030;28;9293;-58
2022/06/14 09:39:17;;;;;;;;;;;;;;;27.84;36.08;94589.19;5044635;28;7269;-58
2022/06/14 09:42:07;;;;;;;;;;;;;;;27.85;36.40;94590.66;5064688;28;9425;-58
2022/06/14 09:45:17;;;;;;;;;;;;;;;27.85;36.61;94591.41;5036778;28;7380;-58
2022/06/14 09:48:23;;;;;;;;;;;;;;;27.85;36.54;94591.41;5045450;28;9065;-58
2022/06/14 09:51:19;;;;;;;;;;;;;;;27.86;36.63;94581.09;5055667;28;9908;-58
2022/06/14 09:54:33;;;;;;;;;;;;;;;27.88;36.18;94568.25;5063282;28;9262;-58
2022/06/14 09:57:31;;;;;;;;;;;;;;;27.88;36.34;94578.56;5037991;28;7340;-58
2022/06/14 10:00:46;;;;;;;;;;;;;;;27.88;36.42;94575.81;5061604;28;9098;-58
2022/06/14 10:03:39;;;;;;;;;;;;;;;27.89;36.13;94571.75;5059568;28;7245;-58
2022/06/14 10:06:37;;;;;;;;;;;;;;;27.89;37.40;94566.22;5037704;28;7094;-58
2022/06/14 10:09:29;;;;;;;;;;;;;;;27.87;36.93;94566.75;5040520;28;8771;-58
2022/06/14 10:12:34;;;;;;;;;;;;;;;27.87;37.42;94569.53;5045262;28;7573;-58
2022/06/14 10:15:38;;;;;;;;;;;;;;;27.89;36.88;94557.94;5048508;28;7095;-58
2022/06/14 10:18:28;;;;;;;;;;;;;;;27.89;36.75;94555.16;5060921;28;7239;-58
2022/06/14 10:21:11;;;;;;;;;;;;;;;27.89;36.96;94546.88;5044460;28;6946;-58
2022/06/14 10:23:44;;;;;;;;;;;;;;;27.92;37.26;94552.13;5065221;28;8726;-58
2022/06/14 10:29:56;;;;;;;;;;;;;;;27.94;36.53;94548.81;5068681;28;6987;-58
2022/06/14 10:33:09;;;;;;;;;;;;;;;27.94;36.72;94543.31;5045102;28;9223;-58
2022/06/14 10:36:11;;;;;;;;;;;;;;;27.94;36.59;94535.75;5043198;28;9126;-58
2022/06/14 10:38:55;;;;;;;;;;;;;;;27.96;36.99;94543.53;5060395;28;7354;-58
2022/06/14 10:42:07;;;;;;;;;;;;;;;27.97;36.79;94533.97;5048684;28;7167;-58
2022/06/14 10:45:10;;;;;;;;;;;;;;;27.96;37.08;94535.97;5054614;28;7401;-58
2022/06/14 10:48:10;;;;;;;;;;;;;;;27.97;36.74;94539.50;5058497;28;9029;-58
2022/06/14 10:50:56;;;;;;;;;;;;;;;27.99;36.73;94532.19;5047060;28;9973;-58
2022/06/14 10:53:58;;;;;;;;;;;;;;;28.00;36.73;94535.69;5054427;28;8196;-58
2022/06/14 10:56:48;;;;;;;;;;;;;;;28.01;36.70;94531.69;5034299;28;9736;-58
2022/06/14 10:59:47;;;;;;;;;;;;;;;28.00;36.68;94525.41;5037444;28;7209;-58
2022/06/14 11:02:52;;;;;;;;;;;;;;;28.01;36.91;94535.19;5034854;28;7210;-58
2022/06/14 11:05:27;;;;;;;;;;;;;;;28.01;36.77;94523.38;5042748;28;9674;-58
2022/06/14 11:08:35;;;;;;;;;;;;;;;28.03;36.70;94526.38;5062125;28;9036;-58
2022/06/14 11:11:31;;;;;;;;;;;;;;;28.06;36.70;94515.00;4953038;28;9229;-58
2022/06/14 11:14:06;;;;;;;;;;;;;;;28.10;36.00;94514.72;4953994;28;7344;-58
2022/06/14 11:16:56;;;;;;;;;;;;;;;28.12;36.59;94510.13;4960885;28;7077;-58
2022/06/14 11:22:07;;;;;;;;;;;;;;;28.17;36.40;94519.63;4969565;28;7276;-58
2022/06/14 11:24:42;;;;;;;;;;;;;;;28.17;36.44;94514.84;4946684;28;7143;-58
2022/06/14 11:27:43;;;;;;;;;;;;;;;28.21;36.08;94517.28;4953766;28;7228;-58
2022/06/14 11:30:26;;;;;;;;;;;;;;;28.21;36.22;94506.97;4916300;29;9850;-58
2022/06/14 11:33:11;;;;;;;;;;;;;;;28.23;35.88;94509.25;4910190;29;7612;-58
2022/06/14 11:35:55;;;;;;;;;;;;;;;28.26;36.05;94506.16;4906680;29;6988;-58
2022/06/14 11:38:25;;;;;;;;;;;;;;;28.27;35.79;94504.16;4912406;29;7105;-58
2022/06/14 11:41:12;;;;;;;;;;;;;;;28.30;36.02;94508.59;4900786;29;8780;-58
2022/06/14 11:43:43;;;;;;;;;;;;;;;28.29;36.01;94507.88;4911900;29;7493;-58
2022/06/14 11:46:20;;;;;;;;;;;;;;;28.29;35.92;94505.13;4913911;29;7109;-58
2022/06/14 11:48:53;;;;;;;;;;;;;;;28.29;36.02;94502.34;4963861;28;9535;-58
2022/06/14 11:51:27;;;;;;;;;;;;;;;28.30;35.82;94497.53;4963645;28;6992;-58
2022/06/14 11:54:21;;;;;;;;;;;;;;;28.35;35.96;94499.50;4961101;28;7207;-58
2022/06/14 11:57:26;;;;;;;;;;;;;;;28.35;36.08;94491.19;4935074;29;7479;-58
2022/06/14 12:00:24;;;;;;;;;;;;;;;28.36;35.83;94495.47;4953348;28;6867;-58
2022/06/14 12:07:00;;;;;;;;;;;;;;;28.40;35.63;94487.59;4956414;28;8194;-58
2022/06/14 12:09:48;;;;;;;;;;;;;;;28.38;36.02;94479.81;4976428;28;7246;-58
2022/06/14 12:12:28;;;;;;;;;;;;;;;28.41;36.17;94489.06;4984226;28;7349;-58
2022/06/14 12:15:00;;;;;;;;;;;;;;;28.43;36.08;94489.28;4990142;28;8062;-58
2022/06/14 12:17:26;;;;;;;;;;;;;;;28.44;35.93;94478.97;4973388;28;9169;-58
2022/06/14 12:20:04;;;;;;;;;;;;;;;28.45;36.19;94486.75;4975500;28;7062;-58
2022/06/14 12:23:06;;;;;;;;;;;;;;;28.46;36.07;94482.72;4981040;28;7253;-58
2022/06/14 12:29:21;;;;;;;;;;;;;;;28.50;36.05;94480.38;4987496;28;7179;-57
2022/06/14 12:32:19;;;;;;;;;;;;;;;28.50;36.25;94477.63;4989073;28;8780;-58
2022/06/14 12:34:56;;;;;;;;;;;;;;;28.51;36.37;94465.28;4980240;28;7253;-58
2022/06/14 12:37:50;;;;;;;;;;;;;;;28.53;36.41;94468.28;4989863;28;7473;-58
2022/06/14 12:40:28;;;;;;;;;;;;;;;28.52;36.35;94464.00;5040281;28;7905;-58
2022/06/14 12:43:41;;;;;;;;;;;;;;;28.56;36.65;94464.44;5060741;28;9073;-58
2022/06/14 12:46:23;;;;;;;;;;;;;;;28.57;36.55;94463.19;5066721;28;7040;-58
2022/06/14 12:49:29;;;;;;;;;;;;;;;28.56;36.44;94463.69;5074484;28;7294;-58
2022/06/14 12:52:21;;;;;;;;;;;;;;;28.57;36.64;94465.97;5051268;28;8748;-58
2022/06/14 12:55:04;;;;;;;;;;;;;;;28.57;36.38;94448.56;5038855;28;7321;-58
2022/06/14 12:57:50;;;;;;;;;;;;;;;28.57;36.94;94452.13;5040363;28;9107;-58
2022/06/14 13:00:35;;;;;;;;;;;;;;;28.58;36.83;94450.84;5055556;28;9178;-59
2022/06/14 13:03:34;;;;;;;;;;;;;;;28.58;36.31;94439.03;5059344;28;9465;-58
2022/06/14 13:06:59;;;;;;;;;;;;;;;28.58;36.45;94445.31;5007874;28;9152;-58
2022/06/14 13:09:29;;;;;;;;;;;;;;;28.58;36.80;94437.00;4952352;28;7992;-58
2022/06/14 13:11:55;;;;;;;;;;;;;;;28.56;36.40;94436.03;4955566;28;8608;-57
2022/06/14 13:15:09;;;;;;;;;;;;;;;28.54;36.65;94422.69;4928262;28;6974;-58
2022/06/14 13:17:53;;;;;;;;;;;;;;;28.54;35.99;94425.47;4952736;28;7822;-58
2022/06/14 13:20:44;;;;;;;;;;;;;;;28.52;36.10;94416.94;4953886;28;8780;-58
2022/06/14 13:23:27;;;;;;;;;;;;;;;28.54;36.43;94419.94;4936438;28;7008;-58
2022/06/14 13:26:48;;;;;;;;;;;;;;;28.54;36.22;94417.16;4932001;28;8868;-58
2022/06/14 13:29:51;;;;;;;;;;;;;;;28.56;36.13;94414.63;4934856;28;9783;-57
2022/06/14 13:32:27;;;;;;;;;;;;;;;28.55;36.10;94421.44;4945880;28;9319;-57
2022/06/14 13:35:40;;;;;;;;;;;;;;;28.56;36.00;94413.91;4936915;28;9107;-58
2022/06/14 13:38:30;;;;;;;;;;;;;;;28.57;36.03;94416.16;4950763;28;7789;-58
2022/06/14 13:41:05;;;;;;;;;;;;;;;28.55;35.97;94407.59;4980588;28;9205;-58
2022/06/14 13:44:04;;;;;;;;;;;;;;;28.58;35.95;94412.09;5046137;28;8719;-58
2022/06/14 13:46:53;;;;;;;;;;;;;;;28.59;35.94;94410.81;4969168;28;9054;-57
2022/06/14 13:49:33;;;;;;;;;;;;;;;28.59;35.77;94402.53;4967477;28;8221;-58
2022/06/14 13:52:44;;;;;;;;;;;;;;;28.60;36.15;94398.47;4984221;28;7266;-57
2022/06/14 13:55:40;;;;;;;;;;;;;;;28.61;35.83;94402.75;4983165;28;7066;-58
2022/06/14 13:58:14;;;;;;;;;;;;;;;28.61;35.93;94405.50;4985299;28;7379;-58
2022/06/14 14:01:02;;;;;;;;;;;;;;;28.62;35.92;94397.97;4972042;28;7132;-58
2022/06/14 14:03:46;;;;;;;;;;;;;;;28.61;36.24;94393.69;4983218;28;8001;-58
2022/06/14 14:06:34;;;;;;;;;;;;;;;28.61;35.96;94390.91;4963425;28;8920;-58
2022/06/14 14:09:30;;;;;;;;;;;;;;;28.61;35.65;94388.16;4979968;28;7226;-58
2022/06/14 14:12:30;;;;;;;;;;;;;;;28.62;35.80;94389.66;4963420;28;8809;-58
2022/06/14 14:15:12;;;;;;;;;;;;;;;28.62;35.56;94379.34;4928685;28;7238;-58
2022/06/14 14:18:23;;;;;;;;;;;;;;;28.63;34.87;94377.28;4941027;28;9597;-58
2022/06/14 14:21:19;;;;;;;;;;;;;;;28.66;33.74;94381.78;4933866;28;7304;-58
2022/06/14 14:24:09;;;;;;;;;;;;;;;28.66;34.14;94374.22;4962407;28;7303;-58
2022/06/14 14:26:48;;;;;;;;;;;;;;;28.68;34.45;94377.19;4955970;28;7689;-58
2022/06/14 14:29:34;;;;;;;;;;;;;;;28.68;34.89;94370.91;4989930;28;7409;-58
2022/06/14 14:32:37;;;;;;;;;;;;;;;28.68;34.90;94374.44;4969398;28;6977;-58
2022/06/14 14:35:36;;;;;;;;;;;;;;;28.69;34.95;94380.69;4986219;28;7799;-58
2022/06/14 14:38:40;;;;;;;;;;;;;;;28.70;35.12;94379.44;4949627;28;7667;-57
2022/06/14 14:41:47;;;;;;;;;;;;;;;28.70;34.93;94369.13;4879258;29;7353;-58
2022/06/14 14:44:16;;;;;;;;;;;;;;;28.72;35.32;94372.09;4892776;29;9125;-58
2022/06/14 14:47:05;;;;;;;;;;;;;;;28.75;35.25;94370.28;4887755;29;8172;-58
2022/06/14 14:49:50;;;;;;;;;;;;;;;28.76;35.47;94366.97;4873327;29;7246;-58
2022/06/14 14:52:28;;;;;;;;;;;;;;;28.77;35.86;94373.25;4903365;29;6980;-58
2022/06/14 14:55:13;;;;;;;;;;;;;;;28.76;35.88;94364.22;4911824;29;9063;-58
2022/06/14 14:57:50;;;;;;;;;;;;;;;28.77;35.48;94365.72;4909222;29;9455;-58
2022/06/14 15:06:19;;;;;;;;;;;;;;;28.76;35.84;94366.97;4920893;29;9005;-58
2022/06/14 15:09:03;;;;;;;;;;;;;;;28.77;35.56;94368.47;4908161;29;8826;-58
2022/06/14 15:11:29;;;;;;;;;;;;;;;28.77;35.84;94351.13;4914004;29;7173;-58
2022/06/14 15:14:01;;;;;;;;;;;;;;;28.80;35.76;94355.56;4915213;28;7220;-58